Terminal Aerodrome Forecast
Issued by NWS

Home | Current Version | Previous Version | Text Only | Print | Product List | Glossary On
Versions: 1 2 3 4 5 6 7 8 9 10 11 12 13
000
FTUS46 KSEW 051100
TAFCLM
TAF
KCLM 051120Z 0512/0612 VRB04KT P6SM BKN200
     FM052200 26005KT P6SM SCT080 BKN200
     FM060300 24005KT P6SM SCT020 SCT080 BKN150=

USA.gov is the U.S. government's official web portal to all federal, state and local government web resources and services.